Time;durP1;ratioP1;P1;durP2;ratioP2;P2;SDS_P1;SDS_P2;PMS_P1;PMS_P2;Temp;Humidity;BMP_temperature;BMP_pressure;BME280_temperature;BME280_humidity;BME280_pressure;Samples;Min_cycle;Max_cycle;Signal;HPM_P1;HPM_P2
2023/01/07 00:02:50;;;;;;;1.60;1.50;;;;;;;16.43;70.24;101146.78;20320466;29;20108;-86
2023/01/07 00:12:52;;;;;;;2.42;1.83;;;;;;;16.38;70.32;101126.53;20320505;29;20056;-86
2023/01/07 00:22:54;;;;;;;1.63;1.52;;;;;;;16.19;70.58;101092.19;20319044;29;20491;-87
2023/01/07 00:33:03;;;;;;;1.67;1.58;;;;;;;16.42;70.77;101119.06;20318678;29;20082;-87
2023/01/07 00:43:05;;;;;;;1.65;1.52;;;;;;;16.42;71.07;101121.75;20301113;29;20044;-88
2023/01/07 00:53:08;;;;;;;1.45;1.35;;;;;;;16.42;71.16;101107.47;20284862;29;20083;-87
2023/01/07 01:03:11;;;;;;;1.40;1.30;;;;;;;16.43;71.51;101109.19;20283788;29;20569;-87
2023/01/07 01:13:15;;;;;;;1.35;1.25;;;;;;;16.43;71.63;101101.94;20299124;29;20036;-87
2023/01/07 01:23:18;;;;;;;1.45;1.35;;;;;;;16.31;71.57;101093.03;20314750;29;20075;-87
2023/01/07 01:33:20;;;;;;;1.88;1.50;;;;;;;16.43;71.86;101106.50;20297488;29;20100;-87
2023/01/07 01:43:30;;;;;;;1.60;1.50;;;;;;;16.42;71.88;101107.47;20314174;29;20107;-87
2023/01/07 01:53:33;;;;;;;1.85;1.50;;;;;;;16.42;72.05;101102.09;20292251;29;20071;-87
2023/01/07 02:03:36;;;;;;;1.30;1.20;;;;;;;16.27;72.39;101075.44;20289741;29;20067;-87
2023/01/07 02:14:13;;;;;;;1.58;1.40;;;;;;;16.42;72.50;101091.34;20276187;29;20082;-87
2023/01/07 02:24:51;;;;;;;1.40;1.30;;;;;;;16.43;72.59;101087.69;20290514;29;20056;-87
2023/01/07 02:34:59;;;;;;;1.50;1.40;;;;;;;16.42;72.52;101080.59;20289057;29;20048;-87
2023/01/07 02:45:09;;;;;;;1.77;1.35;;;;;;;16.42;72.58;101081.44;20291389;29;20059;-87
2023/01/07 02:55:17;;;;;;;1.55;1.40;;;;;;;16.41;72.64;101066.28;20270698;29;20113;-87
2023/01/07 03:05:30;;;;;;;1.52;1.33;;;;;;;16.28;72.93;101030.63;20271974;29;20537;-86
2023/01/07 03:15:38;;;;;;;1.33;1.23;;;;;;;15.88;72.79;100965.69;20303852;29;20644;-86
2023/01/07 03:25:43;;;;;;;1.50;1.40;;;;;;;16.41;72.94;101042.09;20286507;29;20056;-86
2023/01/07 03:35:47;;;;;;;1.67;1.40;;;;;;;16.35;72.95;101030.03;20313809;29;20051;-86
2023/01/07 03:45:49;;;;;;;1.75;1.63;;;;;;;16.41;72.97;101035.91;20281026;29;20044;-86
2023/01/07 03:55:51;;;;;;;1.50;1.40;;;;;;;16.40;72.99;101024.28;20278927;29;20402;-87
2023/01/07 04:05:52;;;;;;;1.63;1.52;;;;;;;16.41;73.00;101011.72;20312631;29;20055;-86
2023/01/07 04:15:56;;;;;;;1.33;1.23;;;;;;;16.40;73.02;101007.31;20298443;29;20090;-86
2023/01/07 04:25:58;;;;;;;1.85;1.33;;;;;;;16.41;73.02;100991.06;20280531;29;20066;-86
2023/01/07 04:36:00;;;;;;;1.50;1.40;;;;;;;16.40;73.07;100973.22;20311920;29;20059;-87
2023/01/07 04:46:02;;;;;;;1.33;1.23;;;;;;;16.40;73.01;100985.81;20243890;29;20384;-87
2023/01/07 04:56:05;;;;;;;1.60;1.42;;;;;;;16.18;72.94;100949.94;20288320;29;20048;-87
2023/01/07 05:06:08;;;;;;;1.98;1.30;;;;;;;16.30;72.81;100958.84;20292206;29;20044;-87
2023/01/07 05:16:11;;;;;;;1.35;1.17;;;;;;;16.38;72.93;100968.00;20295277;29;20052;-87
2023/01/07 05:26:14;;;;;;;1.98;1.33;;;;;;;16.39;72.92;100963.47;20275420;29;20529;-87
2023/01/07 05:36:16;;;;;;;1.67;1.10;;;;;;;16.39;72.84;100958.09;20294706;29;20055;-87
2023/01/07 05:46:17;;;;;;;1.23;1.00;;;;;;;16.24;72.90;100942.25;20296869;29;20146;-87
2023/01/07 05:56:19;;;;;;;1.65;1.25;;;;;;;16.40;72.47;100958.94;20312437;29;20103;-87
2023/01/07 06:06:21;;;;;;;1.20;1.00;;;;;;;16.38;72.76;100942.94;20293845;29;20060;-87
2023/01/07 06:16:23;;;;;;;1.13;1.00;;;;;;;16.21;72.84;100922.81;20295910;29;20414;-87
2023/01/07 06:26:25;;;;;;;1.20;1.10;;;;;;;16.37;72.81;100943.91;20294117;29;20498;-86
2023/01/07 06:36:26;;;;;;;2.05;0.93;;;;;;;16.37;72.77;100927.78;20308100;29;20537;-87
2023/01/07 06:46:28;;;;;;;2.65;0.85;;;;;;;16.39;73.07;100925.84;20335118;29;20052;-92
2023/01/07 06:56:29;;;;;;;3.22;1.17;;;;;;;16.52;76.21;100920.31;20299375;29;20060;-92
2023/01/07 07:06:31;;;;;;;3.00;1.27;;;;;;;16.60;81.95;100884.75;20299490;29;20064;-84
2023/01/07 07:16:33;;;;;;;4.05;0.90;;;;;;;16.80;82.62;100896.53;20300247;29;20119;-88
2023/01/07 07:26:34;;;;;;;2.10;1.00;;;;;;;16.68;82.61;100868.81;20298719;29;20056;-87
2023/01/07 07:36:36;;;;;;;2.47;1.40;;;;;;;16.86;82.03;100893.31;20344661;29;20151;-88
2023/01/07 07:46:38;;;;;;;2.20;0.88;;;;;;;16.86;81.35;100887.06;20330967;29;20431;-87
2023/01/07 07:56:41;;;;;;;2.42;0.80;;;;;;;16.74;80.77;100867.44;20300902;29;20107;-87
2023/01/07 08:06:43;;;;;;;1.17;0.82;;;;;;;16.81;80.13;100858.72;20303731;29;20048;-88
2023/01/07 08:16:44;;;;;;;1.55;0.70;;;;;;;16.66;79.57;100834.00;20275818;29;20060;-91
2023/01/07 08:26:46;;;;;;;0.80;0.80;;;;;;;16.85;79.07;100848.59;20256243;29;20529;-88
2023/01/07 08:36:47;;;;;;;1.17;0.80;;;;;;;16.87;78.49;100843.94;20291444;29;20538;-93
2023/01/07 08:46:51;;;;;;;3.13;0.90;;;;;;;16.90;79.20;100840.97;20303025;29;20107;-92
2023/01/07 08:56:52;;;;;;;1.52;0.88;;;;;;;16.72;81.06;100795.00;20286753;29;20384;-88
2023/01/07 09:06:55;;;;;;;2.00;1.10;;;;;;;16.92;80.29;100827.38;20250194;29;20123;-87
2023/01/07 09:16:57;;;;;;;1.83;0.90;;;;;;;16.73;80.47;100788.63;20271692;29;20103;-94
2023/01/07 09:26:59;;;;;;;1.42;0.90;;;;;;;16.80;80.18;100807.78;20268185;29;20052;-90
2023/01/07 09:37:00;;;;;;;1.92;0.90;;;;;;;16.73;79.38;100807.47;20280454;29;20183;-89
2023/01/07 09:47:02;;;;;;;18.30;5.43;;;;;;;16.74;80.49;100790.34;20258737;29;20060;-89
2023/01/07 09:57:04;;;;;;;11.07;4.40;;;;;;;16.84;79.79;100781.47;20218257;29;20060;-88
2023/01/07 10:07:15;;;;;;;8.93;3.22;;;;;;;16.75;78.88;100764.28;20249129;29;20067;-83
2023/01/07 10:17:32;;;;;;;6.47;2.75;;;;;;;16.34;77.92;100670.97;20240399;29;20061;-88
2023/01/07 10:27:39;;;;;;;4.43;1.80;;;;;;;16.96;77.06;100767.84;20255536;29;20081;-88
2023/01/07 10:37:42;;;;;;;5.50;1.90;;;;;;;16.74;77.41;100711.53;20267522;29;20058;-92
2023/01/07 10:48:21;;;;;;;3.38;1.20;;;;;;;17.10;77.16;100747.84;20290881;29;20064;-92
2023/01/07 10:58:23;;;;;;;3.90;1.42;;;;;;;17.11;76.49;100727.16;20310904;29;20052;-89
2023/01/07 11:08:28;;;;;;;2.17;1.05;;;;;;;17.07;75.80;100694.31;20326081;29;20526;-88
2023/01/07 11:18:35;;;;;;;;;;;;;;;17.03;75.02;100679.44;20308826;29;20112;-89
2023/01/07 11:28:40;;;;;;;1.92;0.98;;;;;;;16.99;74.50;100667.22;20323377;29;19927;-89
2023/01/07 11:38:42;;;;;;;1.67;0.90;;;;;;;16.95;73.97;100646.94;20307861;29;20092;-88
2023/01/07 11:48:52;;;;;;;1.75;0.80;;;;;;;16.92;73.61;100610.44;20305419;29;20044;-88
2023/01/07 11:59:14;;;;;;;0.77;0.70;;;;;;;16.92;73.13;100593.44;20305366;29;20561;-89
2023/01/07 12:09:31;;;;;;;1.10;0.75;;;;;;;16.90;72.78;100572.09;20321399;29;20078;-89
2023/01/07 12:19:57;;;;;;;1.10;0.80;;;;;;;16.90;72.46;100558.63;20320427;29;20059;-89
2023/01/07 12:30:18;;;;;;;1.98;0.88;;;;;;;16.90;71.99;100536.25;20319250;29;20056;-88
2023/01/07 12:40:30;;;;;;;1.55;0.73;;;;;;;16.88;71.69;100496.09;20318645;29;20086;-88
2023/01/07 12:50:40;;;;;;;0.95;0.57;;;;;;;16.89;71.23;100481.66;20301674;29;20056;-88
2023/01/07 13:00:47;;;;;;;0.90;0.55;;;;;;;16.88;71.00;100465.66;20301510;29;20139;-89
2023/01/07 13:10:54;;;;;;;0.90;0.60;;;;;;;16.81;70.65;100433.13;20316942;29;20082;-89
2023/01/07 13:20:55;;;;;;;1.05;0.60;;;;;;;16.87;70.19;100419.09;20283409;29;20107;-88
2023/01/07 13:31:28;;;;;;;1.08;0.52;;;;;;;16.85;69.90;100409.47;20315951;29;20126;-88
2023/01/07 13:41:36;;;;;;;0.93;0.50;;;;;;;16.85;69.73;100394.19;20297760;29;20070;-88
2023/01/07 13:51:38;;;;;;;1.40;0.57;;;;;;;16.86;69.37;100385.16;20314027;29;20406;-89
2023/01/07 14:02:09;;;;;;;0.52;0.40;;;;;;;16.86;69.02;100365.47;20313815;29;20586;-88
2023/01/07 14:12:28;;;;;;;0.98;0.63;;;;;;;16.84;69.13;100360.25;20306357;29;20048;-86
2023/01/07 14:22:47;;;;;;;0.98;0.63;;;;;;;16.75;68.38;100328.81;20286351;29;20056;-89
2023/01/07 14:32:56;;;;;;;1.10;0.70;;;;;;;16.70;68.02;100312.28;20284363;29;20108;-84
2023/01/07 14:43:02;;;;;;;0.68;0.50;;;;;;;16.73;68.05;100310.16;20265247;29;20048;-86
2023/01/07 14:53:22;;;;;;;0.47;0.47;;;;;;;16.69;67.92;100298.00;20252466;29;20054;-87
2023/01/07 15:03:23;;;;;;;0.70;0.60;;;;;;;16.67;67.74;100289.25;20281912;29;20108;-84
2023/01/07 15:23:53;;;;;;;0.70;0.63;;;;;;;16.44;67.85;100243.00;20293131;29;20548;-87
2023/01/07 15:34:11;;;;;;;0.90;0.65;;;;;;;16.60;67.75;100254.00;20288524;29;20056;-84
2023/01/07 15:44:16;;;;;;;0.60;0.60;;;;;;;16.59;68.08;100238.88;20289359;29;20107;-84
2023/01/07 15:54:31;;;;;;;0.90;0.70;;;;;;;16.57;68.02;100214.00;20266467;29;20087;-85
2023/01/07 16:04:35;;;;;;;0.83;0.80;;;;;;;16.55;67.93;100205.22;20288444;29;20052;-87
2023/01/07 16:14:37;;;;;;;0.87;0.77;;;;;;;16.55;67.81;100201.69;20261018;29;20047;-85
2023/01/07 16:24:45;;;;;;;0.90;0.70;;;;;;;16.42;67.82;100188.56;20253064;29;20056;-88
2023/01/07 16:35:00;;;;;;;1.52;0.70;;;;;;;16.53;67.68;100186.56;20244537;29;20052;-88
2023/01/07 16:45:02;;;;;;;0.98;0.60;;;;;;;16.52;67.65;100176.81;20229629;29;20055;-86
2023/01/07 16:55:47;;;;;;;0.70;0.65;;;;;;;16.52;67.48;100170.59;20247226;29;20548;-85
2023/01/07 17:06:03;;;;;;;0.80;0.68;;;;;;;16.33;67.51;100147.31;20224649;29;20091;-86
2023/01/07 17:16:33;;;;;;;0.65;0.57;;;;;;;16.50;67.33;100151.91;20231555;29;20985;-87
2023/01/07 17:26:34;;;;;;;0.80;0.70;;;;;;;16.50;67.46;100151.09;20281139;29;20067;-86
2023/01/07 17:36:41;;;;;;;0.95;0.80;;;;;;;16.50;67.50;100132.28;20261484;29;20463;-87
2023/01/07 17:46:43;;;;;;;0.65;0.65;;;;;;;16.48;67.41;100132.41;20276666;29;20056;-85
2023/01/07 17:56:45;;;;;;;0.80;0.80;;;;;;;16.48;67.15;100120.81;20256653;29;20048;-89
2023/01/07 18:06:47;;;;;;;0.90;0.70;;;;;;;16.47;67.42;100111.06;20243508;29;20052;-92
2023/01/07 18:16:52;;;;;;;1.00;0.90;;;;;;;16.33;67.95;100089.03;20253268;29;20067;-88
2023/01/07 18:26:53;;;;;;;1.23;1.02;;;;;;;16.48;67.53;100102.84;20267793;29;20059;-89
2023/01/07 18:36:57;;;;;;;1.05;0.85;;;;;;;16.46;67.44;100088.72;20285099;29;20056;-89
2023/01/07 18:46:58;;;;;;;1.20;0.90;;;;;;;16.43;67.52;100077.44;20307709;29;20056;-89
2023/01/07 18:57:00;;;;;;;1.90;0.98;;;;;;;16.36;67.72;100045.78;20306899;29;20056;-88
2023/01/07 19:07:02;;;;;;;3.17;1.05;;;;;;;16.45;67.75;100059.34;20292483;29;20048;-89
2023/01/07 19:17:04;;;;;;;1.05;0.77;;;;;;;16.44;67.96;100063.00;20302337;29;20060;-88
2023/01/07 19:27:06;;;;;;;0.90;0.80;;;;;;;16.44;67.66;100030.78;20311720;29;20357;-89
2023/01/07 19:37:07;;;;;;;1.17;0.98;;;;;;;16.44;67.53;100028.09;20314228;29;20059;-89
2023/01/07 19:47:09;;;;;;;1.08;0.77;;;;;;;16.43;67.45;100008.41;20315277;29;20131;-89
2023/01/07 19:57:11;;;;;;;1.25;1.00;;;;;;;16.27;67.53;99987.56;20298563;29;20055;-89
2023/01/07 20:07:12;;;;;;;1.00;0.90;;;;;;;16.42;67.41;99992.47;20311084;29;20059;-88
2023/01/07 20:17:14;;;;;;;1.35;0.95;;;;;;;16.43;67.36;99991.47;20316783;29;20136;-87
2023/01/07 20:27:15;;;;;;;1.15;1.05;;;;;;;16.30;67.29;99971.16;20288610;29;20147;-89
2023/01/07 20:37:17;;;;;;;1.30;1.05;;;;;;;16.34;67.02;99977.91;20311775;29;20051;-88
2023/01/07 20:47:19;;;;;;;1.10;1.00;;;;;;;16.23;67.11;99954.81;20312867;29;20523;-89
2023/01/07 20:57:20;;;;;;;1.25;1.10;;;;;;;16.41;66.89;99985.41;20312079;29;20055;-89
2023/01/07 21:07:22;;;;;;;1.63;1.20;;;;;;;16.27;66.67;99958.03;20308315;29;20054;-89
2023/01/07 21:17:23;;;;;;;1.05;0.90;;;;;;;16.41;66.79;99961.22;20295973;29;20510;-89
2023/01/07 21:27:25;;;;;;;2.15;1.00;;;;;;;16.29;66.77;99942.59;20308743;29;20051;-89
2023/01/07 21:37:27;;;;;;;1.75;1.25;;;;;;;16.40;66.82;99970.28;20294244;29;20150;-88
2023/01/07 21:47:29;;;;;;;1.80;1.10;;;;;;;16.38;66.62;99946.25;20297635;29;20135;-89
2023/01/07 21:57:32;;;;;;;1.67;1.10;;;;;;;16.39;66.65;99937.19;20307511;29;20063;-87
2023/01/07 22:07:34;;;;;;;2.78;1.45;;;;;;;16.38;66.69;99944.41;20276082;29;20071;-89
2023/01/07 22:17:35;;;;;;;1.23;1.00;;;;;;;16.38;66.60;99949.78;20308855;29;20068;-88
2023/01/07 22:27:37;;;;;;;1.95;1.20;;;;;;;16.38;66.96;99938.19;20306076;29;20107;-88
2023/01/07 22:37:38;;;;;;;1.92;1.17;;;;;;;16.38;66.88;99922.94;20304994;29;20064;-89
2023/01/07 22:47:44;;;;;;;2.17;1.13;;;;;;;16.37;66.96;99934.66;20304706;29;20052;-89
2023/01/07 22:57:46;;;;;;;1.33;1.00;;;;;;;16.38;66.90;99946.25;20289351;29;20447;-89
2023/01/07 23:07:47;;;;;;;1.67;1.48;;;;;;;16.38;67.16;99930.13;20287541;29;20518;-88
2023/01/07 23:17:49;;;;;;;1.17;1.00;;;;;;;16.37;67.23;99915.88;20280225;29;20080;-89
2023/01/07 23:27:50;;;;;;;1.30;1.17;;;;;;;16.18;67.13;99884.59;20312164;29;20463;-89
2023/01/07 23:37:52;;;;;;;1.42;1.10;;;;;;;16.37;67.21;99913.19;20315474;29;20127;-88
2023/01/07 23:47:53;;;;;;;1.17;1.00;;;;;;;16.36;67.26;99916.84;20317789;29;20048;-88
2023/01/07 23:57:55;;;;;;;1.13;1.00;;;;;;;16.29;67.25;99902.31;20315866;29;20152;-88
